createdAt,value
2019-04-11T00:00:52.003Z,97894.94
2019-04-11T00:03:23.123Z,97891.20
2019-04-11T00:05:54.903Z,97894.81
2019-04-11T00:08:26.149Z,97897.47
2019-04-11T00:10:57.533Z,97894.50
2019-04-11T00:13:31.497Z,97898.06
2019-04-11T00:16:02.220Z,97902.39
2019-04-11T00:18:34.534Z,97897.72
2019-04-11T00:21:06.668Z,97903.72
2019-04-11T00:23:40.511Z,97900.81
2019-04-11T00:26:11.859Z,97899.11
2019-04-11T00:28:42.092Z,97899.23
2019-04-11T00:31:13.183Z,97901.00
2019-04-11T00:33:44.565Z,97900.30
2019-04-11T00:36:16.574Z,97907.15
2019-04-11T00:38:47.835Z,97902.39
2019-04-11T00:41:19.137Z,97903.31
2019-04-11T00:43:50.483Z,97908.90
2019-04-11T00:46:22.468Z,97915.44
2019-04-11T00:48:54.482Z,97904.76
2019-04-11T00:51:25.731Z,97908.70
2019-04-11T00:53:56.737Z,97911.36
2019-04-11T00:56:28.406Z,97912.34
2019-04-11T00:59:00.262Z,97915.38
2019-04-11T01:01:31.599Z,97915.16
2019-04-11T01:04:03.399Z,97915.18
2019-04-11T01:06:34.453Z,97917.77
2019-04-11T01:09:06.937Z,97917.47
2019-04-11T01:11:38.997Z,97916.30
2019-04-11T01:14:10.211Z,97918.79
2019-04-11T01:16:48.796Z,97915.00
2019-04-11T01:19:20.516Z,97919.73
2019-04-11T01:21:51.547Z,97921.89
2019-04-11T01:24:23.859Z,97922.74
2019-04-11T01:26:55.066Z,97921.05
2019-04-11T01:29:27.307Z,97923.16
2019-04-11T01:32:00.230Z,97923.62
2019-04-11T01:34:31.365Z,97928.41
2019-04-11T01:37:02.362Z,97931.84
2019-04-11T01:39:51.630Z,97930.15
2019-04-11T01:42:24.944Z,97929.73
2019-04-11T01:44:55.162Z,97925.42
2019-04-11T01:47:28.927Z,97930.56
2019-04-11T01:50:00.810Z,97930.69
2019-04-11T01:52:32.259Z,97937.57
2019-04-11T01:55:03.952Z,97938.86
2019-04-11T01:57:36.117Z,97947.41
2019-04-11T02:00:09.463Z,97947.87
2019-04-11T02:02:42.643Z,97948.86
2019-04-11T02:05:25.175Z,97951.45
2019-04-11T02:07:56.457Z,97948.92
2019-04-11T02:10:28.625Z,97948.23
2019-04-11T02:13:00.129Z,97956.81
2019-04-11T02:15:31.078Z,97952.61
2019-04-11T02:18:03.349Z,97956.05
2019-04-11T02:20:34.482Z,97959.94
2019-04-11T02:23:06.797Z,97958.66
2019-04-11T02:25:56.590Z,97950.50
2019-04-11T02:28:26.859Z,97959.48
2019-04-11T02:30:59.993Z,97960.77
2019-04-11T02:33:32.837Z,97962.99
2019-04-11T02:36:05.269Z,97961.76
2019-04-11T02:38:37.368Z,97963.89
2019-04-11T02:41:10.591Z,97963.89
2019-04-11T02:43:44.280Z,97962.69
2019-04-11T02:46:24.576Z,97965.34
2019-04-11T02:48:49.715Z,97963.13
2019-04-11T02:51:27.025Z,97972.53
2019-04-11T02:53:59.037Z,97972.14
2019-04-11T02:56:31.267Z,97974.86
2019-04-11T02:59:04.459Z,97973.59
2019-04-11T03:01:36.876Z,97985.17
2019-04-11T03:04:08.247Z,97981.77
2019-04-11T03:06:39.683Z,97988.16
2019-04-11T03:09:11.103Z,97996.76
2019-04-11T03:11:42.971Z,97990.42
2019-04-11T03:14:16.456Z,97988.26
2019-04-11T03:16:59.065Z,97991.69
2019-04-11T03:19:33.787Z,97992.48
2019-04-11T03:21:54.533Z,97992.52
2019-04-11T03:24:27.118Z,97992.95
2019-04-11T03:27:04.061Z,97995.04
2019-04-11T03:29:33.797Z,97996.73
2019-04-11T03:32:52.119Z,97998.88
2019-04-11T03:35:23.335Z,98000.19
2019-04-11T03:37:38.021Z,98001.11
2019-04-11T03:40:04.607Z,98007.19
2019-04-11T03:42:35.350Z,98013.22
2019-04-11T03:45:11.504Z,98009.88
2019-04-11T03:47:36.022Z,98017.23
2019-04-11T03:50:03.010Z,98012.58
2019-04-11T03:52:30.434Z,98016.89
2019-04-11T03:55:05.842Z,98016.51
2019-04-11T03:57:37.352Z,98025.95
2019-04-11T04:00:10.253Z,98023.89
2019-04-11T04:02:42.064Z,98014.89
2019-04-11T04:05:13.318Z,98022.09
2019-04-11T04:07:46.204Z,98029.30
2019-04-11T04:10:20.018Z,98022.38
2019-04-11T04:12:52.375Z,98022.38
2019-04-11T04:15:55.744Z,98024.49
2019-04-11T04:18:19.121Z,98029.22
2019-04-11T04:20:53.103Z,98030.91
2019-04-11T04:23:27.352Z,98033.09
2019-04-11T04:26:01.094Z,98034.87
2019-04-11T04:28:32.162Z,98037.07
2019-04-11T04:31:04.705Z,98038.36
2019-04-11T04:33:37.424Z,98042.27
2019-04-11T04:36:10.780Z,98043.99
2019-04-11T04:38:42.163Z,98047.00
2019-04-11T04:41:28.163Z,98050.00
2019-04-11T04:43:52.718Z,98050.41
2019-04-11T04:46:39.557Z,98048.27
2019-04-11T04:48:56.406Z,98054.64
2019-04-11T04:51:28.899Z,98058.93
2019-04-11T04:54:00.492Z,98058.91
2019-04-11T04:56:32.447Z,98059.70
2019-04-11T04:59:05.348Z,98058.42
2019-04-11T05:01:39.155Z,98061.00
2019-04-11T05:04:11.411Z,98060.99
2019-04-11T05:06:46.685Z,98065.25
2019-04-11T05:09:17.789Z,98063.92
2019-04-11T05:11:48.755Z,98063.05
2019-04-11T05:14:21.038Z,98062.97
2019-04-11T05:16:52.521Z,98066.81
2019-04-11T05:19:23.979Z,98064.61
2019-04-11T05:21:54.841Z,98061.11
2019-04-11T05:25:16.622Z,98060.60
2019-04-11T05:27:47.750Z,98062.66
2019-04-11T05:30:20.093Z,98066.78
2019-04-11T05:32:51.078Z,98071.83
2019-04-11T05:35:22.803Z,98068.73
2019-04-11T05:37:55.812Z,98069.48
2019-04-11T05:40:28.118Z,98070.27
2019-04-11T05:42:59.634Z,98069.79
2019-04-11T05:45:31.766Z,98074.81
2019-04-11T05:48:05.202Z,98070.35
2019-04-11T05:50:37.045Z,98076.66
2019-04-11T05:53:09.455Z,98076.03
2019-04-11T05:55:42.121Z,98076.75
2019-04-11T05:58:14.438Z,98077.83
2019-04-11T06:01:20.185Z,98073.78
2019-04-11T06:03:40.948Z,98077.02
2019-04-11T06:06:12.796Z,98073.23
2019-04-11T06:08:44.268Z,98071.27
2019-04-11T06:11:22.449Z,98075.98
2019-04-11T06:14:11.144Z,98073.53
2019-04-11T06:16:50.345Z,98077.93
2019-04-11T06:19:18.613Z,98080.45
2019-04-11T06:21:52.577Z,98081.16
2019-04-11T06:24:42.632Z,98081.47
2019-04-11T06:27:35.844Z,98081.21
2019-04-11T06:30:12.561Z,98089.66
2019-04-11T06:32:45.832Z,98083.53
2019-04-11T06:35:30.989Z,98083.30
2019-04-11T06:38:22.654Z,98090.09
2019-04-11T06:40:55.508Z,98093.75
2019-04-11T06:43:28.026Z,98092.06
2019-04-11T06:46:16.694Z,98090.84
2019-04-11T06:48:58.785Z,98091.70
2019-04-11T06:51:40.898Z,98093.41
2019-04-11T06:54:25.547Z,98089.76
2019-04-11T06:56:57.321Z,98091.89
2019-04-11T06:59:30.209Z,98102.73
2019-04-11T07:02:12.946Z,98098.79
2019-04-11T07:04:52.426Z,98100.05
2019-04-11T07:07:27.702Z,98100.53
2019-04-11T07:09:59.833Z,98099.96
2019-04-11T07:12:42.795Z,98098.75
2019-04-11T07:15:16.561Z,98104.56
2019-04-11T07:18:07.439Z,98098.00
2019-04-11T07:20:52.303Z,98099.88
2019-04-11T07:23:44.107Z,98101.58
2019-04-11T07:26:16.686Z,98096.70
2019-04-11T07:28:50.204Z,98106.91
2019-04-11T07:31:39.787Z,98100.35
2019-04-11T07:34:33.258Z,98101.95
2019-04-11T07:37:21.372Z,98103.31
2019-04-11T07:40:10.753Z,98096.92
2019-04-11T07:43:03.792Z,98103.58
2019-04-11T07:45:38.494Z,98103.27
2019-04-11T07:48:29.229Z,98099.84
2019-04-11T07:51:02.046Z,98096.50
2019-04-11T07:53:33.754Z,98096.20
2019-04-11T07:56:06.205Z,98097.05
2019-04-11T07:58:42.070Z,98100.85
2019-04-11T08:01:15.219Z,98102.89
2019-04-11T08:03:49.065Z,98099.53
2019-04-11T08:06:39.092Z,98105.28
2019-04-11T08:09:11.849Z,98103.30
2019-04-11T08:11:58.370Z,98102.67
2019-04-11T08:14:37.057Z,98096.38
2019-04-11T08:17:09.332Z,98099.58
2019-04-11T08:19:59.510Z,98091.28
2019-04-11T08:22:35.049Z,98098.06
2019-04-11T08:25:22.953Z,98101.77
2019-04-11T08:28:01.278Z,98099.09
2019-04-11T08:30:41.558Z,98098.70
2019-04-11T08:33:12.506Z,98100.23
2019-04-11T08:35:55.621Z,98103.92
2019-04-11T08:38:28.860Z,98094.72
2019-04-11T08:41:17.908Z,98093.75
2019-04-11T08:43:48.974Z,98095.60
2019-04-11T08:46:22.626Z,98091.55
2019-04-11T08:49:01.585Z,98092.99
2019-04-11T08:51:34.042Z,98090.72
2019-04-11T08:54:23.777Z,98093.42
2019-04-11T08:56:55.772Z,98099.27
2019-04-11T08:59:31.390Z,98090.08
2019-04-11T09:02:02.865Z,98091.55
2019-04-11T09:05:03.173Z,98093.41
2019-04-11T09:07:29.732Z,98098.27
2019-04-11T09:10:20.030Z,98098.27
2019-04-11T09:12:55.926Z,98089.73
2019-04-11T09:15:35.152Z,98089.72
2019-04-11T09:18:09.509Z,98091.27
2019-04-11T09:21:00.125Z,98092.12
2019-04-11T09:23:31.523Z,98096.66
2019-04-11T09:26:11.757Z,98097.80
2019-04-11T09:28:44.079Z,98092.81
2019-04-11T09:31:22.827Z,98095.67
2019-04-11T09:34:07.634Z,98099.28
2019-04-11T09:36:43.128Z,98099.92
2019-04-11T09:39:19.277Z,98092.16
2019-04-11T09:41:57.595Z,98087.45
2019-04-11T09:44:49.140Z,98086.94
2019-04-11T09:47:30.720Z,98091.27
2019-04-11T09:50:09.829Z,98088.25
2019-04-11T09:52:45.331Z,98083.07
2019-04-11T09:55:34.791Z,98080.06
2019-04-11T09:58:07.445Z,98081.44
2019-04-11T10:00:56.638Z,98085.92
2019-04-11T10:03:29.431Z,98082.81
2019-04-11T10:06:17.634Z,98080.79
2019-04-11T10:08:57.653Z,98078.86
2019-04-11T10:11:35.416Z,98073.22
2019-04-11T10:14:11.230Z,98073.50
2019-04-11T10:17:00.229Z,98076.05
2019-04-11T10:19:36.077Z,98078.21
2019-04-11T10:22:23.404Z,98075.15
2019-04-11T10:24:58.949Z,98071.34
2019-04-11T10:27:42.594Z,98078.63
2019-04-11T10:30:19.495Z,98082.81
2019-04-11T10:32:55.272Z,98074.25
2019-04-11T10:35:44.494Z,98086.18
2019-04-11T10:38:16.783Z,98086.52
2019-04-11T10:41:01.561Z,98091.80
2019-04-11T10:43:34.257Z,98093.39
2019-04-11T10:46:11.271Z,98089.25
2019-04-11T10:48:59.428Z,98085.11
2019-04-11T10:51:33.762Z,98091.27
2019-04-11T10:54:07.367Z,98094.57
2019-04-11T10:56:47.463Z,98098.83
2019-04-11T10:59:19.540Z,98100.56
2019-04-11T11:02:04.774Z,98098.11
2019-04-11T11:04:41.016Z,98095.41
2019-04-11T11:07:13.677Z,98098.38
2019-04-11T11:09:46.523Z,98091.11
2019-04-11T11:12:29.622Z,98091.88
2019-04-11T11:15:03.177Z,98084.30
2019-04-11T11:18:19.805Z,98088.37
2019-04-11T11:20:45.485Z,98082.38
2019-04-11T11:23:30.974Z,98079.63
2019-04-11T11:26:07.076Z,98081.71
2019-04-11T11:28:52.203Z,98081.73
2019-04-11T11:31:24.858Z,98077.54
2019-04-11T11:33:58.810Z,98072.91
2019-04-11T11:36:43.857Z,98083.82
2019-04-11T11:39:17.369Z,98080.65
2019-04-11T11:42:06.555Z,98079.92
2019-04-11T11:44:42.192Z,98081.64
2019-04-11T11:47:35.645Z,98083.05
2019-04-11T11:50:07.912Z,98081.56
2019-04-11T11:52:57.371Z,98088.54
2019-04-11T11:55:31.470Z,98087.66
2019-04-11T11:58:17.329Z,98083.03
2019-04-11T12:00:53.616Z,98087.59
2019-04-11T12:03:31.001Z,98075.55
2019-04-11T12:06:07.244Z,98076.86
2019-04-11T12:08:58.690Z,98073.70
2019-04-11T12:11:30.316Z,98078.25
2019-04-11T12:14:20.099Z,98075.16
2019-04-11T12:16:59.599Z,98085.72
2019-04-11T12:19:27.464Z,98082.95
2019-04-11T12:21:59.947Z,98077.28
2019-04-11T12:24:32.733Z,98077.78
2019-04-11T12:27:18.436Z,98074.05
2019-04-11T12:30:08.687Z,98077.48
2019-04-11T12:32:44.360Z,98075.67
2019-04-11T12:35:27.296Z,98059.03
2019-04-11T12:38:09.227Z,98067.42
2019-04-11T12:40:58.361Z,98072.07
2019-04-11T12:43:31.110Z,98074.06
2019-04-11T12:46:29.553Z,98074.06
2019-04-11T12:48:54.897Z,98080.17
2019-04-11T12:51:43.984Z,98081.66
2019-04-11T12:54:16.604Z,98071.00
2019-04-11T12:57:05.663Z,98081.20
2019-04-11T12:59:36.734Z,98085.12
2019-04-11T13:02:21.953Z,98074.15
2019-04-11T13:04:52.946Z,98073.92
2019-04-11T13:07:25.802Z,98069.89
2019-04-11T13:09:58.748Z,98072.08
2019-04-11T13:12:31.640Z,98067.94
2019-04-11T13:15:10.236Z,98071.45
2019-04-11T13:17:48.884Z,98071.34
2019-04-11T13:20:24.214Z,98076.09
2019-04-11T13:22:57.143Z,98078.17
2019-04-11T13:25:41.840Z,98071.66
2019-04-11T13:28:13.154Z,98073.67
2019-04-11T13:30:48.524Z,98076.43
2019-04-11T13:33:21.322Z,98074.07
2019-04-11T13:35:54.286Z,98073.25
2019-04-11T13:38:26.998Z,98073.44
2019-04-11T13:41:15.944Z,98067.08
2019-04-11T13:43:47.786Z,98068.42
2019-04-11T13:46:20.542Z,98070.59
2019-04-11T13:49:01.141Z,98068.70
2019-04-11T13:51:33.957Z,98066.41
2019-04-11T13:56:52.921Z,98066.14
2019-04-11T13:59:34.421Z,98066.23
2019-04-11T14:02:18.144Z,98069.18
2019-04-11T14:04:51.046Z,98064.31
2019-04-11T14:07:24.218Z,98070.54
2019-04-11T14:10:05.820Z,98060.98
2019-04-11T14:12:38.622Z,98063.05
2019-04-11T14:15:14.666Z,98060.70
2019-04-11T14:17:53.971Z,98060.98
2019-04-11T14:20:32.801Z,98060.19
2019-04-11T14:23:05.607Z,98053.82
2019-04-11T14:25:38.328Z,98059.36
2019-04-11T14:28:11.280Z,98054.66
2019-04-11T14:30:53.019Z,98060.30
2019-04-11T14:33:27.254Z,98067.49
2019-04-11T14:36:17.847Z,98070.60
2019-04-11T14:38:52.307Z,98067.80
2019-04-11T14:41:37.020Z,98064.53
2019-04-11T14:44:08.317Z,98062.52
2019-04-11T14:46:41.031Z,98060.14
2019-04-11T14:49:12.265Z,98057.45
2019-04-11T14:52:00.465Z,98059.97
2019-04-11T14:54:32.419Z,98057.68
2019-04-11T14:57:11.676Z,98053.67
2019-04-11T14:59:43.373Z,98063.66
2019-04-11T15:02:18.875Z,98066.11
2019-04-11T15:04:51.427Z,98069.73
2019-04-11T15:07:22.557Z,98071.42
2019-04-11T15:10:11.473Z,98064.94
2019-04-11T15:12:42.785Z,98067.31
2019-04-11T15:15:31.544Z,98072.25
2019-04-11T15:18:04.220Z,98070.14
2019-04-11T15:20:54.155Z,98073.03
2019-04-11T15:23:29.117Z,98070.81
2019-04-11T15:26:07.824Z,98077.11
2019-04-11T15:28:54.238Z,98079.33
2019-04-11T15:31:38.494Z,98071.69
2019-04-11T15:34:19.165Z,98076.62
2019-04-11T15:37:04.517Z,98073.45
2019-04-11T15:39:44.638Z,98080.09
2019-04-11T15:42:16.082Z,98085.19
2019-04-11T15:44:54.519Z,98082.39
2019-04-11T15:47:25.596Z,98086.25
2019-04-11T15:50:07.621Z,98081.09
2019-04-11T15:52:40.357Z,98082.89
2019-04-11T15:55:16.211Z,98084.70
2019-04-11T15:57:47.354Z,98083.34
2019-04-11T16:00:23.138Z,98087.33
2019-04-11T16:03:01.767Z,98089.63
2019-04-11T16:05:50.949Z,98093.20
2019-04-11T16:08:29.289Z,98099.07
2019-04-11T16:11:12.107Z,98100.64
2019-04-11T16:13:48.876Z,98097.52
2019-04-11T16:16:21.925Z,98097.17
2019-04-11T16:18:59.025Z,98095.77
2019-04-11T16:21:32.152Z,98104.30
2019-04-11T16:24:17.833Z,98106.46
2019-04-11T16:27:05.831Z,98102.75
2019-04-11T16:29:38.992Z,98103.00
2019-04-11T16:32:14.991Z,98098.38
2019-04-11T16:35:05.559Z,98102.44
2019-04-11T16:37:36.546Z,98098.08
2019-04-11T16:40:25.569Z,98099.49
2019-04-11T16:42:59.203Z,98098.88
2019-04-11T16:45:47.298Z,98105.58
2019-04-11T16:48:18.678Z,98100.83
2019-04-11T16:50:49.946Z,98100.28
2019-04-11T16:53:21.071Z,98108.16
2019-04-11T16:55:53.883Z,98109.91
2019-04-11T16:58:25.322Z,98112.59
2019-04-11T17:00:56.639Z,98116.00
2019-04-11T17:03:27.897Z,98115.09
2019-04-11T17:06:06.754Z,98115.16
2019-04-11T17:08:51.519Z,98120.62
2019-04-11T17:11:21.763Z,98115.75
2019-04-11T17:13:57.130Z,98119.64
2019-04-11T17:16:29.942Z,98122.78
2019-04-11T17:18:58.542Z,98127.06
2019-04-11T17:21:28.623Z,98128.69
2019-04-11T17:23:59.821Z,98133.10
2019-04-11T17:26:30.821Z,98131.84
2019-04-11T17:29:01.934Z,98133.89
2019-04-11T17:31:32.937Z,98136.44
2019-04-11T17:34:05.616Z,98138.47
2019-04-11T17:36:37.005Z,98137.20
2019-04-11T17:39:08.548Z,98138.64
2019-04-11T17:41:43.861Z,98142.25
2019-04-11T17:44:15.662Z,98149.36
2019-04-11T17:46:46.702Z,98166.93
2019-04-11T17:49:20.768Z,98154.95
2019-04-11T17:51:56.111Z,98164.59
2019-04-11T17:54:26.283Z,98168.96
2019-04-11T17:56:59.024Z,98172.29
2019-04-11T17:59:29.213Z,98177.47
2019-04-11T18:02:00.737Z,98184.11
2019-04-11T18:04:32.467Z,98182.84
2019-04-11T18:07:03.604Z,98191.89
2019-04-11T18:09:34.534Z,98202.19
2019-04-11T18:12:30.649Z,98205.16
2019-04-11T18:15:14.999Z,98205.09
2019-04-11T18:17:46.318Z,98216.22
2019-04-11T18:20:17.374Z,98219.14
2019-04-11T18:22:50.472Z,98227.73
2019-04-11T18:25:21.785Z,98228.98
2019-04-11T18:27:54.303Z,98233.48
2019-04-11T18:30:25.418Z,98236.67
2019-04-11T18:32:56.715Z,98236.12
2019-04-11T18:35:31.701Z,98245.87
2019-04-11T18:38:02.040Z,98244.27
2019-04-11T18:40:37.936Z,98246.67
2019-04-11T18:43:08.386Z,98256.37
2019-04-11T18:45:39.642Z,98262.66
2019-04-11T18:48:12.142Z,98269.22
2019-04-11T18:50:43.652Z,98275.39
2019-04-11T18:53:14.925Z,98278.39
2019-04-11T18:55:46.131Z,98282.34
2019-04-11T18:58:17.144Z,98281.56
2019-04-11T19:00:48.354Z,98286.55
2019-04-11T19:03:19.445Z,98288.41
2019-04-11T19:05:50.597Z,98293.39
2019-04-11T19:08:21.559Z,98295.29
2019-04-11T19:10:52.950Z,98297.19
2019-04-11T19:13:24.012Z,98300.38
2019-04-11T19:15:56.776Z,98303.53
2019-04-11T19:18:27.893Z,98309.41
2019-04-11T19:20:59.849Z,98308.30
2019-04-11T19:23:31.248Z,98312.80
2019-04-11T19:26:02.135Z,98314.23
2019-04-11T19:28:33.491Z,98314.47
2019-04-11T19:31:06.108Z,98318.11
2019-04-11T19:33:39.899Z,98325.55
2019-04-11T19:36:12.381Z,98334.28
2019-04-11T19:38:43.959Z,98324.14
2019-04-11T19:41:17.993Z,98332.53
2019-04-11T19:43:49.318Z,98331.83
2019-04-11T19:46:21.096Z,98337.53
2019-04-11T19:48:59.072Z,98343.27
2019-04-11T19:51:28.965Z,98343.83
2019-04-11T19:54:03.237Z,98351.78
2019-04-11T19:56:36.462Z,98341.92
2019-04-11T19:59:06.623Z,98344.46
2019-04-11T20:01:37.774Z,98350.21
2019-04-11T20:04:08.796Z,98350.38
2019-04-11T20:06:40.022Z,98354.71
2019-04-11T20:09:11.050Z,98349.22
2019-04-11T20:11:44.721Z,98351.55
2019-04-11T20:14:14.766Z,98352.97
2019-04-11T20:16:48.939Z,98356.56
2019-04-11T20:19:18.585Z,98357.25
2019-04-11T20:21:49.801Z,98366.25
2019-04-11T20:24:20.817Z,98364.70
2019-04-11T20:26:52.185Z,98364.81
2019-04-11T20:29:23.219Z,98363.55
2019-04-11T20:31:53.346Z,98368.78
2019-04-11T20:34:27.628Z,98371.89
2019-04-11T20:36:57.094Z,98370.22
2019-04-11T20:39:28.301Z,98369.05
2019-04-11T20:41:59.209Z,98381.11
2019-04-11T20:44:30.324Z,98373.48
2019-04-11T20:47:01.226Z,98381.83
2019-04-11T20:49:34.122Z,98377.68
2019-04-11T20:52:05.065Z,98373.00
2019-04-11T20:54:38.455Z,98376.92
2019-04-11T20:57:11.904Z,98376.56
2019-04-11T20:59:42.577Z,98379.05
2019-04-11T21:02:13.712Z,98374.30
2019-04-11T21:04:44.073Z,98385.07
2019-04-11T21:07:15.177Z,98387.20
2019-04-11T21:09:46.165Z,98390.64
2019-04-11T21:12:18.234Z,98385.50
2019-04-11T21:14:49.140Z,98387.74
2019-04-11T21:17:20.235Z,98387.77
2019-04-11T21:19:53.278Z,98395.59
2019-04-11T21:22:24.757Z,98395.25
2019-04-11T21:24:55.903Z,98394.50
2019-04-11T21:27:28.977Z,98393.64
2019-04-11T21:29:59.990Z,98397.14
2019-04-11T21:32:32.616Z,98394.53
2019-04-11T21:35:04.469Z,98406.16
2019-04-11T21:37:36.821Z,98401.06
2019-04-11T21:40:08.254Z,98409.62
2019-04-11T21:42:38.457Z,98413.63
2019-04-11T21:45:10.052Z,98414.64
2019-04-11T21:47:41.069Z,98410.42
2019-04-11T21:50:12.490Z,98413.85
2019-04-11T21:52:44.265Z,98418.14
2019-04-11T21:55:16.351Z,98413.93
2019-04-11T21:57:48.963Z,98418.70
2019-04-11T22:00:27.765Z,98415.23
2019-04-11T22:02:58.764Z,98416.14
2019-04-11T22:05:30.115Z,98429.02
2019-04-11T22:08:03.714Z,98426.43
2019-04-11T22:10:33.921Z,98426.06
2019-04-11T22:13:05.103Z,98435.52
2019-04-11T22:15:36.299Z,98428.27
2019-04-11T22:18:07.456Z,98431.71
2019-04-11T22:20:37.759Z,98422.65
2019-04-11T22:23:09.251Z,98430.37
2019-04-11T22:25:40.158Z,98432.56
2019-04-11T22:28:11.437Z,98433.44
2019-04-11T22:30:42.439Z,98428.72
2019-04-11T22:33:17.914Z,98430.92
2019-04-11T22:35:48.877Z,98430.11
2019-04-11T22:38:19.907Z,98435.26
2019-04-11T22:40:50.869Z,98427.16
2019-04-11T22:43:24.659Z,98430.16
2019-04-11T22:45:55.032Z,98431.87
2019-04-11T22:48:26.322Z,98423.73
2019-04-11T22:50:57.214Z,98430.58
2019-04-11T22:53:27.421Z,98435.74
2019-04-11T22:55:58.488Z,98436.26
2019-04-11T22:58:29.351Z,98431.59
2019-04-11T23:01:00.470Z,98428.55
2019-04-11T23:03:33.058Z,98428.97
2019-04-11T23:06:04.685Z,98428.16
2019-04-11T23:08:35.659Z,98426.02
2019-04-11T23:11:06.796Z,98426.02
2019-04-11T23:13:37.760Z,98425.20
2019-04-11T23:16:09.249Z,98431.24
2019-04-11T23:18:41.884Z,98429.56
2019-04-11T23:21:14.893Z,98435.99
2019-04-11T23:23:45.907Z,98436.03
2019-04-11T23:26:18.537Z,98434.31
2019-04-11T23:28:49.657Z,98433.45
2019-04-11T23:31:20.855Z,98437.34
2019-04-11T23:33:52.651Z,98435.62
2019-04-11T23:36:23.699Z,98435.23
2019-04-11T23:38:54.839Z,98438.66
2019-04-11T23:41:25.768Z,98435.23
2019-04-11T23:43:56.903Z,98441.26
2019-04-11T23:46:27.919Z,98439.97
2019-04-11T23:48:59.217Z,98439.14
2019-04-11T23:51:30.187Z,98446.02
2019-04-11T23:54:01.575Z,98441.73
2019-04-11T23:56:32.653Z,98444.70
2019-04-11T23:59:04.010Z,98449.86
